createdAt,value
2019-06-08T00:00:13.194Z,10.72
2019-06-08T00:02:41.786Z,10.30
2019-06-08T00:05:10.819Z,11.03
2019-06-08T00:07:39.553Z,10.48
2019-06-08T00:10:08.659Z,10.72
2019-06-08T00:12:37.270Z,10.48
2019-06-08T00:15:07.158Z,11.45
2019-06-08T00:17:39.000Z,10.15
2019-06-08T00:20:07.822Z,10.23
2019-06-08T00:22:36.464Z,10.55
2019-06-08T00:25:05.677Z,10.10
2019-06-08T00:27:34.344Z,10.40
2019-06-08T00:30:04.259Z,10.03
2019-06-08T00:32:33.336Z,10.38
2019-06-08T00:35:01.987Z,11.10
2019-06-08T00:37:30.713Z,10.32
2019-06-08T00:39:59.311Z,9.60
2019-06-08T00:42:27.955Z,10.30
2019-06-08T00:44:56.592Z,10.15
2019-06-08T00:47:26.774Z,10.55
2019-06-08T00:49:55.660Z,10.15
2019-06-08T00:52:25.567Z,9.98
2019-06-08T00:54:54.630Z,11.00
2019-06-08T00:57:23.880Z,9.65
2019-06-08T01:02:20.441Z,10.53
2019-06-08T01:04:49.087Z,9.15
2019-06-08T01:07:17.908Z,10.20
2019-06-08T01:09:46.633Z,10.75
2019-06-08T01:12:15.230Z,10.72
2019-06-08T01:14:43.929Z,10.50
2019-06-08T01:17:12.610Z,9.48
2019-06-08T01:19:41.678Z,9.78
2019-06-08T01:22:10.407Z,10.65
2019-06-08T01:24:38.978Z,10.38
2019-06-08T01:27:07.583Z,10.90
2019-06-08T01:29:36.144Z,11.35
2019-06-08T01:32:04.798Z,10.60
2019-06-08T01:34:33.453Z,11.05
2019-06-08T01:37:02.114Z,10.32
2019-06-08T01:39:32.446Z,10.28
2019-06-08T01:42:01.144Z,10.50
2019-06-08T01:44:30.095Z,10.55
2019-06-08T01:46:58.842Z,11.00
2019-06-08T01:49:28.418Z,11.40
2019-06-08T01:51:57.246Z,10.18
2019-06-08T01:54:26.949Z,10.40
2019-06-08T01:56:55.637Z,10.48
2019-06-08T01:59:25.220Z,10.10
2019-06-08T02:01:53.910Z,9.60
2019-06-08T02:04:23.881Z,10.38
2019-06-08T02:06:52.622Z,10.30
2019-06-08T02:09:21.283Z,9.88
2019-06-08T02:11:50.018Z,10.50
2019-06-08T02:14:18.578Z,9.80
2019-06-08T02:16:47.203Z,9.97
2019-06-08T02:19:15.741Z,9.70
2019-06-08T02:21:44.375Z,10.45
2019-06-08T02:24:12.977Z,10.85
2019-06-08T02:26:41.646Z,11.00
2019-06-08T02:29:10.244Z,10.35
2019-06-08T02:31:38.851Z,10.72
2019-06-08T02:34:07.607Z,10.60
2019-06-08T02:36:37.868Z,10.65
2019-06-08T02:39:08.317Z,10.15
2019-06-08T02:41:37.566Z,11.10
2019-06-08T02:44:06.591Z,10.82
2019-06-08T02:46:35.977Z,10.08
2019-06-08T02:49:05.844Z,10.00
2019-06-08T02:51:36.426Z,10.60
2019-06-08T02:54:05.859Z,9.33
2019-06-08T02:56:36.800Z,9.85
2019-06-08T02:59:06.031Z,9.23
2019-06-08T03:01:36.632Z,9.78
2019-06-08T03:04:06.587Z,9.93
2019-06-08T03:06:39.381Z,9.88
2019-06-08T03:09:08.599Z,8.68
2019-06-08T03:11:38.993Z,8.65
2019-06-08T03:14:07.589Z,8.75
2019-06-08T03:16:38.391Z,8.55
2019-06-08T03:19:21.175Z,8.70
2019-06-08T03:21:38.332Z,8.20
2019-06-08T03:24:07.143Z,8.30
2019-06-08T03:26:36.722Z,8.10
2019-06-08T03:29:06.073Z,7.92
2019-06-08T03:31:39.155Z,8.28
2019-06-08T03:34:05.030Z,7.78
2019-06-08T03:36:37.389Z,7.85
2019-06-08T03:39:05.445Z,7.62
2019-06-08T03:41:34.783Z,7.47
2019-06-08T03:44:04.981Z,7.35
2019-06-08T03:49:03.245Z,7.45
2019-06-08T03:51:35.167Z,7.42
2019-06-08T03:54:02.210Z,7.25
2019-06-08T03:56:30.828Z,6.70
2019-06-08T03:58:59.421Z,6.87
2019-06-08T04:01:27.987Z,6.75
2019-06-08T04:03:59.876Z,7.00
2019-06-08T04:06:26.907Z,6.30
2019-06-08T04:08:55.526Z,7.22
2019-06-08T04:11:24.115Z,6.72
2019-06-08T04:13:52.685Z,6.58
2019-06-08T04:16:22.385Z,6.80
2019-06-08T04:18:50.928Z,5.75
2019-06-08T04:21:19.535Z,5.55
2019-06-08T04:23:48.118Z,5.62
2019-06-08T04:26:16.719Z,5.22
2019-06-08T04:28:47.198Z,5.58
2019-06-08T04:31:15.586Z,5.35
2019-06-08T04:33:44.354Z,6.22
2019-06-08T04:36:13.050Z,6.35
2019-06-08T04:38:43.159Z,6.47
2019-06-08T04:41:12.109Z,6.37
2019-06-08T04:43:42.854Z,6.50
2019-06-08T04:46:11.867Z,6.50
2019-06-08T04:48:40.681Z,6.45
2019-06-08T04:51:09.926Z,5.72
2019-06-08T04:53:38.618Z,6.22
2019-06-08T04:56:07.455Z,6.65
2019-06-08T04:58:36.007Z,6.55
2019-06-08T05:01:04.671Z,6.53
2019-06-08T05:03:33.231Z,6.00
2019-06-08T05:06:01.858Z,6.10
2019-06-08T05:08:30.420Z,5.67
2019-06-08T05:10:59.013Z,5.85
2019-06-08T05:13:27.608Z,6.05
2019-06-08T05:15:56.198Z,6.08
2019-06-08T05:18:26.073Z,6.45
2019-06-08T05:20:54.996Z,4.92
2019-06-08T05:23:23.543Z,4.87
2019-06-08T05:25:52.145Z,5.08
2019-06-08T05:28:20.771Z,5.03
2019-06-08T05:30:49.687Z,5.28
2019-06-08T05:35:47.527Z,4.87
2019-06-08T05:38:16.269Z,4.75
2019-06-08T05:40:45.597Z,5.03
2019-06-08T05:43:14.386Z,5.05
2019-06-08T05:45:43.800Z,4.67
2019-06-08T05:48:12.393Z,4.37
2019-06-08T05:50:54.906Z,4.70
2019-06-08T05:53:11.290Z,3.60
2019-06-08T05:55:39.854Z,3.90
2019-06-08T05:58:08.662Z,3.80
2019-06-08T06:00:37.415Z,3.35
2019-06-08T06:03:06.135Z,3.45
2019-06-08T06:05:34.822Z,3.45
2019-06-08T06:08:15.382Z,3.35
2019-06-08T06:10:33.722Z,2.98
2019-06-08T06:13:02.270Z,2.95
2019-06-08T06:15:31.010Z,3.10
2019-06-08T06:17:59.593Z,3.15
2019-06-08T06:20:28.343Z,3.20
2019-06-08T06:22:58.609Z,3.20
2019-06-08T06:25:27.360Z,3.67
2019-06-08T06:30:23.873Z,3.25
2019-06-08T06:35:20.724Z,3.02
2019-06-08T06:40:19.007Z,3.30
2019-06-08T06:42:48.010Z,2.98
2019-06-08T06:45:17.013Z,2.65
2019-06-08T06:47:46.447Z,4.35
2019-06-08T06:50:15.334Z,2.85
2019-06-08T06:52:44.601Z,2.70
2019-06-08T06:55:13.645Z,2.95
2019-06-08T06:57:43.478Z,2.50
2019-06-08T07:00:13.206Z,2.72
2019-06-08T07:02:41.772Z,3.15
2019-06-08T07:07:38.443Z,2.72
2019-06-08T07:10:07.812Z,2.72
2019-06-08T07:12:36.652Z,2.83
2019-06-08T07:15:09.697Z,2.80
2019-06-08T07:17:38.345Z,2.55
2019-06-08T07:22:36.305Z,2.60
2019-06-08T07:25:06.006Z,2.65
2019-06-08T07:27:34.572Z,2.90
2019-06-08T07:30:03.586Z,2.60
2019-06-08T07:32:32.854Z,3.10
2019-06-08T07:35:01.413Z,2.70
2019-06-08T07:39:57.924Z,2.55
2019-06-08T07:44:55.102Z,2.72
2019-06-08T07:47:23.894Z,3.20
2019-06-08T07:49:53.281Z,2.85
2019-06-08T07:52:22.000Z,2.65
2019-06-08T07:54:50.954Z,3.10
2019-06-08T07:57:19.793Z,2.80
2019-06-08T07:59:49.184Z,3.30
2019-06-08T08:02:18.603Z,3.15
2019-06-08T08:07:15.113Z,4.17
2019-06-08T08:12:12.389Z,4.03
2019-06-08T08:14:41.162Z,3.70
2019-06-08T08:19:37.665Z,2.95
2019-06-08T08:24:35.769Z,3.50
2019-06-08T08:29:32.702Z,3.00
2019-06-08T08:32:02.031Z,3.20
2019-06-08T08:34:30.768Z,3.22
2019-06-08T08:39:28.725Z,3.60
2019-06-08T08:42:02.951Z,4.17
2019-06-08T08:44:28.357Z,3.42
2019-06-08T08:47:00.546Z,4.00
2019-06-08T08:49:28.126Z,3.95
2019-06-08T08:51:59.004Z,3.60
2019-06-08T08:54:27.557Z,4.00
2019-06-08T08:57:01.641Z,3.80
2019-06-08T08:59:28.044Z,3.67
2019-06-08T09:01:59.178Z,3.45
2019-06-08T09:04:27.745Z,3.65
2019-06-08T09:07:02.382Z,3.47
2019-06-08T09:09:28.863Z,3.70
2019-06-08T09:12:02.194Z,3.40
2019-06-08T09:14:28.080Z,3.40
2019-06-08T09:16:59.810Z,3.65
2019-06-08T09:19:28.103Z,3.80
2019-06-08T09:21:58.953Z,4.40
2019-06-08T09:24:28.622Z,3.55
2019-06-08T09:27:00.871Z,4.62
2019-06-08T09:29:28.882Z,4.05
2019-06-08T09:31:59.072Z,3.60
2019-06-08T09:34:28.377Z,3.80
2019-06-08T09:37:00.117Z,3.37
2019-06-08T09:39:28.624Z,3.42
2019-06-08T09:42:00.382Z,3.05
2019-06-08T09:44:28.167Z,3.50
2019-06-08T09:47:01.985Z,3.60
2019-06-08T09:49:28.000Z,4.10
2019-06-08T09:52:00.356Z,4.35
2019-06-08T09:54:28.292Z,3.52
2019-06-08T09:57:00.923Z,3.65
2019-06-08T09:59:28.509Z,3.87
2019-06-08T10:02:03.615Z,3.83
2019-06-08T10:04:29.126Z,3.40
2019-06-08T10:07:00.226Z,3.85
2019-06-08T10:09:28.480Z,3.42
2019-06-08T10:11:59.579Z,3.58
2019-06-08T10:14:28.211Z,4.00
2019-06-08T10:16:59.150Z,3.50
2019-06-08T10:19:27.181Z,3.92
2019-06-08T10:21:56.908Z,4.25
2019-06-08T10:24:25.947Z,5.42
2019-06-08T10:26:55.203Z,4.50
2019-06-08T10:29:23.900Z,5.40
2019-06-08T10:31:52.468Z,5.35
2019-06-08T10:34:21.161Z,5.22
2019-06-08T10:36:49.792Z,4.55
2019-06-08T10:39:18.512Z,5.33
2019-06-08T10:41:51.267Z,4.40
2019-06-08T10:44:18.268Z,5.03
2019-06-08T10:46:48.231Z,4.85
2019-06-08T10:49:18.680Z,5.10
2019-06-08T10:51:48.741Z,4.55
2019-06-08T10:54:17.628Z,4.70
2019-06-08T10:56:48.414Z,4.72
2019-06-08T10:59:18.515Z,5.65
2019-06-08T11:01:46.757Z,4.60
2019-06-08T11:04:15.696Z,4.80
2019-06-08T11:06:44.455Z,5.47
2019-06-08T11:09:15.258Z,5.58
2019-06-08T11:11:43.476Z,4.80
2019-06-08T11:14:13.185Z,5.97
2019-06-08T11:16:42.357Z,4.55
2019-06-08T11:19:13.218Z,4.90
2019-06-08T11:21:41.355Z,4.80
2019-06-08T11:24:21.651Z,5.70
2019-06-08T11:26:40.507Z,6.08
2019-06-08T11:29:12.206Z,5.22
2019-06-08T11:31:39.555Z,5.15
2019-06-08T11:34:08.583Z,4.75
2019-06-08T11:36:39.476Z,5.05
2019-06-08T11:39:11.330Z,5.17
2019-06-08T11:41:39.058Z,4.62
2019-06-08T11:44:11.890Z,5.50
2019-06-08T11:46:38.790Z,5.22
2019-06-08T11:49:11.685Z,4.75
2019-06-08T11:51:38.438Z,5.12
2019-06-08T11:54:25.479Z,5.17
2019-06-08T11:56:40.239Z,5.22
2019-06-08T11:59:11.104Z,5.25
2019-06-08T12:01:38.081Z,4.78
2019-06-08T12:04:07.741Z,4.60
2019-06-08T12:06:37.689Z,5.10
2019-06-08T12:09:10.412Z,5.03
2019-06-08T12:11:38.294Z,5.20
2019-06-08T12:14:09.195Z,5.33
2019-06-08T12:16:37.882Z,4.95
2019-06-08T12:19:10.012Z,5.10
2019-06-08T12:21:37.109Z,5.17
2019-06-08T12:24:06.194Z,4.83
2019-06-08T12:26:35.043Z,4.72
2019-06-08T12:29:05.092Z,10.70
2019-06-08T12:31:33.758Z,5.87
2019-06-08T12:34:02.348Z,5.33
2019-06-08T12:36:30.938Z,5.30
2019-06-08T12:38:59.605Z,5.15
2019-06-08T12:41:31.180Z,5.47
2019-06-08T12:43:58.585Z,5.15
2019-06-08T12:46:28.053Z,6.08
2019-06-08T12:48:58.330Z,5.33
2019-06-08T12:51:28.091Z,5.58
2019-06-08T12:53:59.887Z,5.28
2019-06-08T12:56:28.786Z,5.05
2019-06-08T12:58:57.910Z,4.83
2019-06-08T13:03:58.110Z,5.55
2019-06-08T13:06:28.241Z,4.80
2019-06-08T13:08:57.734Z,5.05
2019-06-08T13:11:28.272Z,5.28
2019-06-08T13:13:56.942Z,4.95
2019-06-08T13:16:28.225Z,5.22
2019-06-08T13:18:58.516Z,4.85
2019-06-08T13:21:34.609Z,5.17
2019-06-08T13:23:58.144Z,5.05
2019-06-08T13:26:28.640Z,5.15
2019-06-08T13:28:58.341Z,5.17
2019-06-08T13:31:28.872Z,5.35
2019-06-08T13:33:58.651Z,5.25
2019-06-08T13:36:29.536Z,5.22
2019-06-08T13:38:57.531Z,5.12
2019-06-08T13:41:29.550Z,4.80
2019-06-08T13:43:58.117Z,5.30
2019-06-08T13:46:28.214Z,6.83
2019-06-08T13:48:58.544Z,4.65
2019-06-08T13:51:28.229Z,4.78
2019-06-08T13:53:58.096Z,9.38
2019-06-08T13:56:28.428Z,4.67
2019-06-08T13:58:57.495Z,4.62
2019-06-08T14:01:30.377Z,4.85
2019-06-08T14:03:58.158Z,4.60
2019-06-08T14:06:28.407Z,4.33
2019-06-08T14:08:58.010Z,4.72
2019-06-08T14:11:28.049Z,4.60
2019-06-08T14:14:00.777Z,4.70
2019-06-08T14:16:29.459Z,4.40
2019-06-08T14:18:57.435Z,4.42
2019-06-08T14:21:34.192Z,4.65
2019-06-08T14:23:58.597Z,4.78
2019-06-08T14:26:26.507Z,4.83
2019-06-08T14:28:55.146Z,4.90
2019-06-08T14:31:25.312Z,4.62
2019-06-08T14:33:54.168Z,5.03
2019-06-08T14:36:24.068Z,4.70
2019-06-08T14:38:52.934Z,4.85
2019-06-08T14:41:22.694Z,4.97
2019-06-08T14:43:51.364Z,4.87
2019-06-08T14:46:21.129Z,4.90
2019-06-08T14:48:50.183Z,5.78
2019-06-08T14:51:18.859Z,4.87
2019-06-08T14:53:48.543Z,5.08
2019-06-08T14:56:19.459Z,5.05
2019-06-08T14:58:48.307Z,5.15
2019-06-08T15:01:19.441Z,5.30
2019-06-08T15:03:48.234Z,4.67
2019-06-08T15:06:17.873Z,4.90
2019-06-08T15:08:52.761Z,5.33
2019-06-08T15:11:21.452Z,5.05
2019-06-08T15:13:50.033Z,4.65
2019-06-08T15:16:19.692Z,5.20
2019-06-08T15:18:48.443Z,5.20
2019-06-08T15:21:17.915Z,5.20
2019-06-08T15:23:47.745Z,4.75
2019-06-08T15:26:23.983Z,4.78
2019-06-08T15:28:48.557Z,4.40
2019-06-08T15:31:18.393Z,4.00
2019-06-08T15:33:48.161Z,4.33
2019-06-08T15:36:20.314Z,5.10
2019-06-08T15:38:47.991Z,4.65
2019-06-08T15:41:20.742Z,4.37
2019-06-08T15:43:48.101Z,4.47
2019-06-08T15:46:18.365Z,4.78
2019-06-08T15:48:48.512Z,4.50
2019-06-08T15:51:17.357Z,4.45
2019-06-08T15:53:47.698Z,4.50
2019-06-08T15:56:18.540Z,4.62
2019-06-08T15:58:48.703Z,4.17
2019-06-08T16:01:16.917Z,4.95
2019-06-08T16:03:45.510Z,4.17
2019-06-08T16:06:14.110Z,4.72
2019-06-08T16:08:42.677Z,4.67
2019-06-08T16:11:11.306Z,4.75
2019-06-08T16:13:39.885Z,5.45
2019-06-08T16:16:08.454Z,4.45
2019-06-08T16:18:37.272Z,4.58
2019-06-08T16:21:05.885Z,5.00
2019-06-08T16:23:35.714Z,4.65
2019-06-08T16:26:04.687Z,5.22
2019-06-08T16:28:34.170Z,4.40
2019-06-08T16:31:05.470Z,4.53
2019-06-08T16:33:33.393Z,5.17
2019-06-08T16:36:02.483Z,4.78
2019-06-08T16:38:32.363Z,4.90
2019-06-08T16:41:01.124Z,4.65
2019-06-08T16:43:30.961Z,4.50
2019-06-08T16:45:59.725Z,5.20
2019-06-08T16:48:28.311Z,6.33
2019-06-08T16:50:57.036Z,6.37
2019-06-08T16:53:25.629Z,5.00
2019-06-08T16:55:54.289Z,5.80
2019-06-08T16:58:22.951Z,6.53
2019-06-08T17:00:51.615Z,6.35
2019-06-08T17:03:20.169Z,6.50
2019-06-08T17:05:48.769Z,7.08
2019-06-08T17:08:17.423Z,7.10
2019-06-08T17:10:46.115Z,6.47
2019-06-08T17:13:14.778Z,6.87
2019-06-08T17:15:43.510Z,6.45
2019-06-08T17:18:12.104Z,6.60
2019-06-08T17:20:40.787Z,6.08
2019-06-08T17:23:09.408Z,6.65
2019-06-08T17:25:38.779Z,6.33
2019-06-08T17:28:07.528Z,6.17
2019-06-08T17:30:37.522Z,7.25
2019-06-08T17:33:06.429Z,7.50
2019-06-08T17:35:35.583Z,7.10
2019-06-08T17:40:33.848Z,7.08
2019-06-08T17:43:02.857Z,7.03
2019-06-08T17:45:32.357Z,7.97
2019-06-08T17:48:01.222Z,7.40
2019-06-08T17:50:29.941Z,7.42
2019-06-08T17:52:58.561Z,8.40
2019-06-08T17:55:27.250Z,7.90
2019-06-08T17:57:55.814Z,8.28
2019-06-08T18:00:24.844Z,7.92
2019-06-08T18:05:21.610Z,8.85
2019-06-08T18:07:50.172Z,8.00
2019-06-08T18:10:18.906Z,8.35
2019-06-08T18:12:49.328Z,8.53
2019-06-08T18:15:17.773Z,9.13
2019-06-08T18:17:48.249Z,11.03
2019-06-08T18:20:17.768Z,9.60
2019-06-08T18:22:49.272Z,8.60
2019-06-08T18:25:17.746Z,9.35
2019-06-08T18:30:19.127Z,9.75
2019-06-08T18:32:48.576Z,8.53
2019-06-08T18:35:18.228Z,8.80
2019-06-08T18:37:48.657Z,10.70
2019-06-08T18:40:18.095Z,19.65
2019-06-08T18:42:48.691Z,27.77
2019-06-08T18:45:18.609Z,17.98
2019-06-08T18:47:48.427Z,20.02
2019-06-08T18:50:18.178Z,15.32
2019-06-08T18:52:49.469Z,13.38
2019-06-08T18:55:18.313Z,12.13
2019-06-08T18:57:48.978Z,13.05
2019-06-08T19:00:17.986Z,14.05
2019-06-08T19:02:53.583Z,13.48
2019-06-08T19:05:20.786Z,13.93
2019-06-08T19:07:50.016Z,14.87
2019-06-08T19:10:23.398Z,15.28
2019-06-08T19:12:51.990Z,15.13
2019-06-08T19:15:23.734Z,14.55
2019-06-08T19:17:54.418Z,14.70
2019-06-08T19:20:22.694Z,14.93
2019-06-08T19:22:54.104Z,13.05
2019-06-08T19:25:21.662Z,14.70
2019-06-08T19:27:53.056Z,13.32
2019-06-08T19:30:24.213Z,13.53
2019-06-08T19:32:52.432Z,12.35
2019-06-08T19:35:21.218Z,12.40
2019-06-08T19:37:53.625Z,13.40
2019-06-08T19:40:20.241Z,13.43
2019-06-08T19:42:56.850Z,13.20
2019-06-08T19:45:19.386Z,11.83
2019-06-08T19:47:48.840Z,11.25
2019-06-08T19:50:17.648Z,11.75
2019-06-08T19:52:51.620Z,10.63
2019-06-08T19:55:18.151Z,12.00
2019-06-08T19:57:49.064Z,11.73
2019-06-08T20:00:18.111Z,11.33
2019-06-08T20:02:47.787Z,11.45
2019-06-08T20:05:17.489Z,11.22
2019-06-08T20:07:47.020Z,11.53
2019-06-08T20:10:17.628Z,11.20
2019-06-08T20:12:49.237Z,11.45
2019-06-08T20:15:18.425Z,12.15
2019-06-08T20:17:48.934Z,12.82
2019-06-08T20:20:18.663Z,13.13
2019-06-08T20:22:50.342Z,14.38
2019-06-08T20:25:17.959Z,13.20
2019-06-08T20:27:49.753Z,12.23
2019-06-08T20:30:17.409Z,11.08
2019-06-08T20:35:17.456Z,11.68
2019-06-08T20:37:46.003Z,11.20
2019-06-08T20:40:14.903Z,11.10
2019-06-08T20:42:44.182Z,10.72
2019-06-08T20:45:13.117Z,10.75
2019-06-08T20:47:42.383Z,10.90
2019-06-08T20:50:11.593Z,11.10
2019-06-08T20:52:40.246Z,11.05
2019-06-08T20:55:09.055Z,11.18
2019-06-08T20:57:37.650Z,10.15
2019-06-08T21:00:11.890Z,11.18
2019-06-08T21:02:39.606Z,11.00
2019-06-08T21:05:09.065Z,11.20
2019-06-08T21:07:37.634Z,11.90
2019-06-08T21:10:08.587Z,13.28
2019-06-08T21:12:37.918Z,12.33
2019-06-08T21:15:07.628Z,11.73
2019-06-08T21:17:38.370Z,12.45
2019-06-08T21:20:08.542Z,12.23
2019-06-08T21:22:37.404Z,12.50
2019-06-08T21:25:08.961Z,12.15
2019-06-08T21:27:38.453Z,11.40
2019-06-08T21:30:20.279Z,12.58
2019-06-08T21:32:40.633Z,12.45
2019-06-08T21:35:09.536Z,12.55
2019-06-08T21:37:38.174Z,13.10
2019-06-08T21:40:08.683Z,10.95
2019-06-08T21:42:37.384Z,11.85
2019-06-08T21:45:09.685Z,11.85
2019-06-08T21:47:38.539Z,11.45
2019-06-08T21:50:08.305Z,11.65
2019-06-08T21:52:37.049Z,13.08
2019-06-08T21:55:07.350Z,12.03
2019-06-08T21:57:37.137Z,12.55
2019-06-08T22:00:22.909Z,13.05
2019-06-08T22:02:38.291Z,13.25
2019-06-08T22:05:08.247Z,13.75
2019-06-08T22:07:37.735Z,13.03
2019-06-08T22:12:39.963Z,12.75
2019-06-08T22:15:07.984Z,12.35
2019-06-08T22:17:38.307Z,12.98
2019-06-08T22:20:09.261Z,13.78
2019-06-08T22:22:38.012Z,12.90
2019-06-08T22:25:08.283Z,12.75
2019-06-08T22:27:38.127Z,12.60
2019-06-08T22:30:13.460Z,12.63
2019-06-08T22:32:38.605Z,13.10
2019-06-08T22:35:08.170Z,12.68
2019-06-08T22:37:38.060Z,12.10
2019-06-08T22:40:08.402Z,12.37
2019-06-08T22:42:37.759Z,13.38
2019-06-08T22:45:08.369Z,12.95
2019-06-08T22:47:38.765Z,13.15
2019-06-08T22:50:08.215Z,14.30
2019-06-08T22:52:37.508Z,13.78
2019-06-08T22:55:10.598Z,13.48
2019-06-08T22:57:37.718Z,13.28
2019-06-08T23:02:38.428Z,13.55
2019-06-08T23:05:08.944Z,14.13
2019-06-08T23:07:38.121Z,13.20
2019-06-08T23:10:10.868Z,14.53
2019-06-08T23:12:39.421Z,14.38
2019-06-08T23:15:08.490Z,14.33
2019-06-08T23:17:38.773Z,14.68
2019-06-08T23:20:08.722Z,13.78
2019-06-08T23:22:38.395Z,14.53
2019-06-08T23:25:09.469Z,14.60
2019-06-08T23:27:38.154Z,15.50
2019-06-08T23:30:10.121Z,15.32
2019-06-08T23:32:38.954Z,15.18
2019-06-08T23:35:09.545Z,15.60
2019-06-08T23:37:38.557Z,16.02
2019-06-08T23:40:08.006Z,17.00
2019-06-08T23:42:38.350Z,16.87
2019-06-08T23:45:10.567Z,16.23
2019-06-08T23:47:38.737Z,16.60
2019-06-08T23:50:10.938Z,16.57
2019-06-08T23:52:38.436Z,15.23
2019-06-08T23:55:11.389Z,15.05
2019-06-08T23:57:38.191Z,13.98
